sensor_id;sensor_type;location;lat;lon;timestamp;P1;durP1;ratioP1;P2;durP2;ratioP2
2564;SDS011;1292;48.020;7.822;2022-08-19T05:46:28;10.80;;;9.70;;
2564;SDS011;1292;48.020;7.822;2022-08-19T05:48:55;14.30;;;11.50;;
2564;SDS011;1292;48.020;7.822;2022-08-19T05:51:22;14.20;;;12.93;;
2564;SDS011;1292;48.020;7.822;2022-08-19T05:53:50;11.63;;;10.53;;
2564;SDS011;1292;48.020;7.822;2022-08-19T05:56:17;13.00;;;11.70;;
2564;SDS011;1292;48.020;7.822;2022-08-19T05:58:45;12.30;;;11.17;;
2564;SDS011;1292;48.020;7.822;2022-08-19T06:01:13;13.07;;;11.60;;
2564;SDS011;1292;48.020;7.822;2022-08-19T06:03:44;13.03;;;11.93;;
2564;SDS011;1292;48.020;7.822;2022-08-19T06:06:13;12.20;;;11.07;;
2564;SDS011;1292;48.020;7.822;2022-08-19T06:08:41;11.37;;;10.37;;
2564;SDS011;1292;48.020;7.822;2022-08-19T06:11:14;11.30;;;10.30;;
2564;SDS011;1292;48.020;7.822;2022-08-19T06:13:42;11.60;;;10.40;;
2564;SDS011;1292;48.020;7.822;2022-08-19T06:16:12;11.83;;;10.73;;
2564;SDS011;1292;48.020;7.822;2022-08-19T06:18:48;11.60;;;10.57;;
2564;SDS011;1292;48.020;7.822;2022-08-19T06:21:18;11.40;;;10.40;;
2564;SDS011;1292;48.020;7.822;2022-08-19T06:23:45;10.67;;;9.57;;
2564;SDS011;1292;48.020;7.822;2022-08-19T06:26:13;10.87;;;9.87;;
2564;SDS011;1292;48.020;7.822;2022-08-19T06:28:41;11.50;;;10.50;;
2564;SDS011;1292;48.020;7.822;2022-08-19T06:31:12;10.97;;;9.87;;
2564;SDS011;1292;48.020;7.822;2022-08-19T06:33:41;9.70;;;8.80;;
2564;SDS011;1292;48.020;7.822;2022-08-19T06:36:13;10.57;;;9.53;;
2564;SDS011;1292;48.020;7.822;2022-08-19T06:38:43;11.13;;;10.03;;
2564;SDS011;1292;48.020;7.822;2022-08-19T06:41:10;11.43;;;9.90;;
2564;SDS011;1292;48.020;7.822;2022-08-19T06:43:37;11.30;;;10.40;;
2564;SDS011;1292;48.020;7.822;2022-08-19T06:46:04;10.87;;;9.70;;
2564;SDS011;1292;48.020;7.822;2022-08-19T06:48:36;10.33;;;9.33;;
2564;SDS011;1292;48.020;7.822;2022-08-19T06:51:04;12.70;;;10.10;;
2564;SDS011;1292;48.020;7.822;2022-08-19T06:53:33;9.67;;;8.77;;
2564;SDS011;1292;48.020;7.822;2022-08-19T06:56:00;10.70;;;9.80;;
2564;SDS011;1292;48.020;7.822;2022-08-19T06:58:27;10.23;;;9.33;;
2564;SDS011;1292;48.020;7.822;2022-08-19T07:00:57;10.83;;;9.93;;
2564;SDS011;1292;48.020;7.822;2022-08-19T07:03:25;10.43;;;9.40;;
2564;SDS011;1292;48.020;7.822;2022-08-19T07:05:53;9.10;;;8.30;;
2564;SDS011;1292;48.020;7.822;2022-08-19T07:08:21;9.90;;;8.70;;
2564;SDS011;1292;48.020;7.822;2022-08-19T07:10:50;11.77;;;10.77;;
2564;SDS011;1292;48.020;7.822;2022-08-19T07:13:17;11.10;;;10.13;;
2564;SDS011;1292;48.020;7.822;2022-08-19T07:15:44;9.80;;;8.90;;
2564;SDS011;1292;48.020;7.822;2022-08-19T07:18:12;10.03;;;9.23;;
2564;SDS011;1292;48.020;7.822;2022-08-19T07:20:39;10.80;;;9.87;;
2564;SDS011;1292;48.020;7.822;2022-08-19T07:23:06;9.90;;;9.10;;
2564;SDS011;1292;48.020;7.822;2022-08-19T07:25:33;10.50;;;9.50;;
2564;SDS011;1292;48.020;7.822;2022-08-19T07:28:04;10.60;;;9.80;;
2564;SDS011;1292;48.020;7.822;2022-08-19T07:30:32;11.87;;;10.67;;
2564;SDS011;1292;48.020;7.822;2022-08-19T07:33:01;10.43;;;9.23;;
2564;SDS011;1292;48.020;7.822;2022-08-19T07:35:28;10.70;;;9.70;;
2564;SDS011;1292;48.020;7.822;2022-08-19T07:37:57;9.97;;;9.07;;
2564;SDS011;1292;48.020;7.822;2022-08-19T07:40:28;10.03;;;9.03;;
2564;SDS011;1292;48.020;7.822;2022-08-19T07:42:55;10.80;;;9.80;;
2564;SDS011;1292;48.020;7.822;2022-08-19T07:45:24;10.30;;;9.33;;
2564;SDS011;1292;48.020;7.822;2022-08-19T07:47:50;10.07;;;9.17;;
2564;SDS011;1292;48.020;7.822;2022-08-19T07:50:19;10.77;;;9.77;;
2564;SDS011;1292;48.020;7.822;2022-08-19T07:52:46;10.90;;;9.77;;
2564;SDS011;1292;48.020;7.822;2022-08-19T07:55:14;11.30;;;10.30;;
2564;SDS011;1292;48.020;7.822;2022-08-19T07:57:43;12.43;;;11.33;;
2564;SDS011;1292;48.020;7.822;2022-08-19T08:00:10;10.90;;;9.80;;
2564;SDS011;1292;48.020;7.822;2022-08-19T08:02:38;13.07;;;11.80;;
2564;SDS011;1292;48.020;7.822;2022-08-19T08:05:07;11.93;;;10.83;;
2564;SDS011;1292;48.020;7.822;2022-08-19T08:07:52;11.80;;;10.60;;
2564;SDS011;1292;48.020;7.822;2022-08-19T08:10:36;19.87;;;12.27;;
2564;SDS011;1292;48.020;7.822;2022-08-19T08:13:03;15.57;;;12.23;;
2564;SDS011;1292;48.020;7.822;2022-08-19T08:15:30;13.90;;;11.70;;
2564;SDS011;1292;48.020;7.822;2022-08-19T08:17:59;13.23;;;11.10;;
2564;SDS011;1292;48.020;7.822;2022-08-19T08:20:25;12.57;;;11.13;;
2564;SDS011;1292;48.020;7.822;2022-08-19T08:22:52;13.33;;;12.03;;
2564;SDS011;1292;48.020;7.822;2022-08-19T08:25:36;13.83;;;11.40;;
2564;SDS011;1292;48.020;7.822;2022-08-19T08:28:03;11.13;;;10.13;;
2564;SDS011;1292;48.020;7.822;2022-08-19T08:30:34;12.60;;;11.30;;
2564;SDS011;1292;48.020;7.822;2022-08-19T08:33:03;13.00;;;11.70;;
2564;SDS011;1292;48.020;7.822;2022-08-19T08:35:30;12.33;;;11.03;;
2564;SDS011;1292;48.020;7.822;2022-08-19T08:37:58;15.40;;;14.00;;
2564;SDS011;1292;48.020;7.822;2022-08-19T08:40:28;15.27;;;13.67;;
2564;SDS011;1292;48.020;7.822;2022-08-19T08:42:57;13.03;;;11.77;;
2564;SDS011;1292;48.020;7.822;2022-08-19T08:45:30;14.17;;;12.77;;
2564;SDS011;1292;48.020;7.822;2022-08-19T08:48:00;13.93;;;12.53;;
2564;SDS011;1292;48.020;7.822;2022-08-19T08:50:38;13.70;;;12.30;;
2564;SDS011;1292;48.020;7.822;2022-08-19T08:53:09;14.03;;;12.47;;
2564;SDS011;1292;48.020;7.822;2022-08-19T08:55:37;25.67;;;13.20;;
2564;SDS011;1292;48.020;7.822;2022-08-19T08:58:07;15.03;;;13.10;;
2564;SDS011;1292;48.020;7.822;2022-08-19T09:00:43;14.93;;;13.30;;
2564;SDS011;1292;48.020;7.822;2022-08-19T09:03:17;14.87;;;13.47;;
2564;SDS011;1292;48.020;7.822;2022-08-19T09:05:48;16.43;;;14.63;;
2564;SDS011;1292;48.020;7.822;2022-08-19T09:08:27;13.13;;;11.77;;
2564;SDS011;1292;48.020;7.822;2022-08-19T09:11:06;14.80;;;13.30;;
2564;SDS011;1292;48.020;7.822;2022-08-19T09:13:37;16.73;;;15.13;;
2564;SDS011;1292;48.020;7.822;2022-08-19T09:16:12;14.83;;;13.37;;
2564;SDS011;1292;48.020;7.822;2022-08-19T09:18:43;17.17;;;15.43;;
2564;SDS011;1292;48.020;7.822;2022-08-19T09:21:12;16.60;;;15.07;;
2564;SDS011;1292;48.020;7.822;2022-08-19T09:23:39;17.63;;;15.80;;
2564;SDS011;1292;48.020;7.822;2022-08-19T09:26:09;17.33;;;15.53;;
2564;SDS011;1292;48.020;7.822;2022-08-19T09:28:38;16.37;;;14.77;;
2564;SDS011;1292;48.020;7.822;2022-08-19T09:31:06;17.47;;;15.63;;
2564;SDS011;1292;48.020;7.822;2022-08-19T09:33:33;17.80;;;16.00;;
2564;SDS011;1292;48.020;7.822;2022-08-19T09:36:05;15.07;;;13.57;;
2564;SDS011;1292;48.020;7.822;2022-08-19T09:38:34;17.20;;;15.50;;
2564;SDS011;1292;48.020;7.822;2022-08-19T09:41:05;17.17;;;15.63;;
2564;SDS011;1292;48.020;7.822;2022-08-19T09:43:33;18.10;;;16.23;;
2564;SDS011;1292;48.020;7.822;2022-08-19T09:46:02;16.53;;;14.70;;
2564;SDS011;1292;48.020;7.822;2022-08-19T09:48:31;20.63;;;15.87;;
2564;SDS011;1292;48.020;7.822;2022-08-19T09:51:02;17.53;;;15.70;;
2564;SDS011;1292;48.020;7.822;2022-08-19T09:53:33;16.13;;;14.53;;
2564;SDS011;1292;48.020;7.822;2022-08-19T09:56:00;14.50;;;13.17;;
2564;SDS011;1292;48.020;7.822;2022-08-19T09:58:27;14.90;;;13.40;;
2564;SDS011;1292;48.020;7.822;2022-08-19T10:00:55;17.27;;;15.63;;
2564;SDS011;1292;48.020;7.822;2022-08-19T10:03:23;16.20;;;14.60;;
2564;SDS011;1292;48.020;7.822;2022-08-19T10:05:50;14.53;;;13.13;;
2564;SDS011;1292;48.020;7.822;2022-08-19T10:08:22;19.77;;;15.43;;
2564;SDS011;1292;48.020;7.822;2022-08-19T10:10:52;17.93;;;16.27;;
2564;SDS011;1292;48.020;7.822;2022-08-19T10:13:21;17.40;;;15.70;;
2564;SDS011;1292;48.020;7.822;2022-08-19T10:15:51;16.07;;;14.50;;
2564;SDS011;1292;48.020;7.822;2022-08-19T10:18:20;16.53;;;14.67;;
2564;SDS011;1292;48.020;7.822;2022-08-19T10:20:49;15.97;;;14.37;;
2564;SDS011;1292;48.020;7.822;2022-08-19T10:23:19;17.10;;;15.30;;
2564;SDS011;1292;48.020;7.822;2022-08-19T10:25:47;16.33;;;14.67;;
2564;SDS011;1292;48.020;7.822;2022-08-19T10:28:14;18.00;;;14.90;;
2564;SDS011;1292;48.020;7.822;2022-08-19T10:30:41;17.20;;;15.50;;
2564;SDS011;1292;48.020;7.822;2022-08-19T10:33:08;18.63;;;16.53;;
2564;SDS011;1292;48.020;7.822;2022-08-19T10:35:35;16.57;;;14.30;;
2564;SDS011;1292;48.020;7.822;2022-08-19T10:38:02;17.93;;;14.20;;
2564;SDS011;1292;48.020;7.822;2022-08-19T10:40:31;15.90;;;14.30;;
2564;SDS011;1292;48.020;7.822;2022-08-19T10:42:58;15.13;;;13.63;;
2564;SDS011;1292;48.020;7.822;2022-08-19T10:45:25;16.00;;;14.60;;
2564;SDS011;1292;48.020;7.822;2022-08-19T10:47:52;17.60;;;14.33;;
2564;SDS011;1292;48.020;7.822;2022-08-19T10:50:19;17.63;;;15.87;;
2564;SDS011;1292;48.020;7.822;2022-08-19T10:53:04;19.33;;;16.13;;
2564;SDS011;1292;48.020;7.822;2022-08-19T10:55:35;17.03;;;15.33;;
2564;SDS011;1292;48.020;7.822;2022-08-19T10:58:31;15.17;;;13.77;;
2564;SDS011;1292;48.020;7.822;2022-08-19T11:00:58;16.23;;;14.63;;
2564;SDS011;1292;48.020;7.822;2022-08-19T11:03:25;18.30;;;16.43;;
2564;SDS011;1292;48.020;7.822;2022-08-19T11:05:58;18.13;;;16.43;;
2564;SDS011;1292;48.020;7.822;2022-08-19T11:08:25;16.10;;;14.43;;
2564;SDS011;1292;48.020;7.822;2022-08-19T11:10:54;17.10;;;15.03;;
2564;SDS011;1292;48.020;7.822;2022-08-19T11:13:25;18.17;;;14.47;;
2564;SDS011;1292;48.020;7.822;2022-08-19T11:15:56;18.80;;;14.20;;
2564;SDS011;1292;48.020;7.822;2022-08-19T11:18:24;15.40;;;13.93;;
2564;SDS011;1292;48.020;7.822;2022-08-19T11:20:51;16.10;;;14.50;;
2564;SDS011;1292;48.020;7.822;2022-08-19T11:23:18;16.23;;;14.63;;
2564;SDS011;1292;48.020;7.822;2022-08-19T11:25:45;15.57;;;14.00;;
2564;SDS011;1292;48.020;7.822;2022-08-19T11:28:13;16.20;;;14.50;;
2564;SDS011;1292;48.020;7.822;2022-08-19T11:30:41;15.70;;;14.20;;
2564;SDS011;1292;48.020;7.822;2022-08-19T11:33:07;16.97;;;15.20;;
2564;SDS011;1292;48.020;7.822;2022-08-19T11:35:38;16.17;;;14.47;;
2564;SDS011;1292;48.020;7.822;2022-08-19T11:38:05;18.60;;;16.47;;
2564;SDS011;1292;48.020;7.822;2022-08-19T11:40:32;16.20;;;12.83;;
2564;SDS011;1292;48.020;7.822;2022-08-19T11:42:59;17.57;;;15.70;;
2564;SDS011;1292;48.020;7.822;2022-08-19T11:45:27;16.87;;;15.17;;
2564;SDS011;1292;48.020;7.822;2022-08-19T11:47:55;17.47;;;15.73;;
2564;SDS011;1292;48.020;7.822;2022-08-19T11:50:22;22.80;;;17.70;;
2564;SDS011;1292;48.020;7.822;2022-08-19T11:52:49;24.80;;;19.50;;
2564;SDS011;1292;48.020;7.822;2022-08-19T11:55:19;18.17;;;14.53;;
2564;SDS011;1292;48.020;7.822;2022-08-19T11:57:46;22.87;;;16.47;;
2564;SDS011;1292;48.020;7.822;2022-08-19T12:00:13;18.17;;;16.27;;
2564;SDS011;1292;48.020;7.822;2022-08-19T12:02:42;17.37;;;15.30;;
2564;SDS011;1292;48.020;7.822;2022-08-19T12:05:08;17.90;;;16.20;;
2564;SDS011;1292;48.020;7.822;2022-08-19T12:07:35;17.97;;;16.27;;
2564;SDS011;1292;48.020;7.822;2022-08-19T12:10:02;18.23;;;16.33;;
2564;SDS011;1292;48.020;7.822;2022-08-19T12:12:30;16.10;;;14.70;;
2564;SDS011;1292;48.020;7.822;2022-08-19T12:14:56;16.83;;;15.23;;
2564;SDS011;1292;48.020;7.822;2022-08-19T12:17:24;16.03;;;14.50;;
2564;SDS011;1292;48.020;7.822;2022-08-19T12:19:53;18.37;;;16.47;;
2564;SDS011;1292;48.020;7.822;2022-08-19T12:22:20;17.47;;;15.77;;
2564;SDS011;1292;48.020;7.822;2022-08-19T12:24:47;17.90;;;16.10;;
2564;SDS011;1292;48.020;7.822;2022-08-19T12:27:15;15.43;;;13.93;;
2564;SDS011;1292;48.020;7.822;2022-08-19T12:29:42;15.97;;;13.33;;
2564;SDS011;1292;48.020;7.822;2022-08-19T12:32:09;17.70;;;15.37;;
2564;SDS011;1292;48.020;7.822;2022-08-19T12:34:36;16.53;;;14.93;;
2564;SDS011;1292;48.020;7.822;2022-08-19T12:37:05;16.50;;;14.87;;
2564;SDS011;1292;48.020;7.822;2022-08-19T12:39:36;15.87;;;14.43;;
2564;SDS011;1292;48.020;7.822;2022-08-19T12:42:05;16.83;;;13.93;;
2564;SDS011;1292;48.020;7.822;2022-08-19T12:44:32;16.13;;;14.73;;
2564;SDS011;1292;48.020;7.822;2022-08-19T12:46:59;15.63;;;14.33;;
2564;SDS011;1292;48.020;7.822;2022-08-19T12:49:27;15.60;;;13.97;;
2564;SDS011;1292;48.020;7.822;2022-08-19T12:51:54;14.50;;;13.10;;
2564;SDS011;1292;48.020;7.822;2022-08-19T12:54:24;15.10;;;13.50;;
2564;SDS011;1292;48.020;7.822;2022-08-19T12:56:51;15.60;;;14.13;;
2564;SDS011;1292;48.020;7.822;2022-08-19T12:59:18;16.60;;;14.90;;
2564;SDS011;1292;48.020;7.822;2022-08-19T13:01:45;17.37;;;15.17;;
2564;SDS011;1292;48.020;7.822;2022-08-19T13:04:12;14.37;;;13.07;;
2564;SDS011;1292;48.020;7.822;2022-08-19T13:06:38;14.33;;;12.10;;
2564;SDS011;1292;48.020;7.822;2022-08-19T13:09:05;14.03;;;12.83;;
2564;SDS011;1292;48.020;7.822;2022-08-19T13:11:34;15.70;;;13.77;;
2564;SDS011;1292;48.020;7.822;2022-08-19T13:14:01;13.07;;;11.97;;
2564;SDS011;1292;48.020;7.822;2022-08-19T13:16:29;15.10;;;13.77;;
2564;SDS011;1292;48.020;7.822;2022-08-19T13:18:56;15.67;;;13.60;;
2564;SDS011;1292;48.020;7.822;2022-08-19T13:21:25;15.40;;;13.80;;
2564;SDS011;1292;48.020;7.822;2022-08-19T13:23:54;13.60;;;12.50;;
2564;SDS011;1292;48.020;7.822;2022-08-19T13:26:21;13.60;;;12.20;;
2564;SDS011;1292;48.020;7.822;2022-08-19T13:28:57;15.90;;;14.30;;
2564;SDS011;1292;48.020;7.822;2022-08-19T13:31:42;13.33;;;12.00;;
2564;SDS011;1292;48.020;7.822;2022-08-19T13:34:27;12.93;;;11.83;;
2564;SDS011;1292;48.020;7.822;2022-08-19T13:36:58;11.50;;;10.47;;
2564;SDS011;1292;48.020;7.822;2022-08-19T13:39:28;14.80;;;13.47;;
2564;SDS011;1292;48.020;7.822;2022-08-19T13:41:57;12.23;;;10.63;;
2564;SDS011;1292;48.020;7.822;2022-08-19T13:44:27;13.10;;;11.80;;
2564;SDS011;1292;48.020;7.822;2022-08-19T13:46:55;12.47;;;11.10;;
2564;SDS011;1292;48.020;7.822;2022-08-19T13:49:29;11.10;;;10.10;;
2564;SDS011;1292;48.020;7.822;2022-08-19T13:51:56;12.80;;;11.70;;
2564;SDS011;1292;48.020;7.822;2022-08-19T13:54:23;10.70;;;9.80;;
2564;SDS011;1292;48.020;7.822;2022-08-19T13:56:51;10.10;;;9.20;;
2564;SDS011;1292;48.020;7.822;2022-08-19T13:59:20;10.77;;;9.70;;
2564;SDS011;1292;48.020;7.822;2022-08-19T14:01:51;9.53;;;8.63;;
2564;SDS011;1292;48.020;7.822;2022-08-19T14:04:18;13.33;;;10.67;;
2564;SDS011;1292;48.020;7.822;2022-08-19T14:06:45;9.80;;;9.00;;
2564;SDS011;1292;48.020;7.822;2022-08-19T14:09:12;11.37;;;10.40;;
2564;SDS011;1292;48.020;7.822;2022-08-19T14:11:40;10.90;;;9.87;;
2564;SDS011;1292;48.020;7.822;2022-08-19T14:14:07;9.87;;;9.07;;
2564;SDS011;1292;48.020;7.822;2022-08-19T14:16:36;10.47;;;9.70;;
2564;SDS011;1292;48.020;7.822;2022-08-19T14:19:09;10.37;;;9.63;;
2564;SDS011;1292;48.020;7.822;2022-08-19T14:21:36;17.47;;;11.53;;
2564;SDS011;1292;48.020;7.822;2022-08-19T14:24:06;11.23;;;10.00;;
2564;SDS011;1292;48.020;7.822;2022-08-19T14:26:35;19.57;;;11.60;;
2564;SDS011;1292;48.020;7.822;2022-08-19T14:29:03;13.37;;;10.30;;
2564;SDS011;1292;48.020;7.822;2022-08-19T14:31:31;10.53;;;9.63;;
2564;SDS011;1292;48.020;7.822;2022-08-19T14:33:58;11.93;;;10.77;;
2564;SDS011;1292;48.020;7.822;2022-08-19T14:36:27;15.80;;;12.73;;
2564;SDS011;1292;48.020;7.822;2022-08-19T14:38:55;13.00;;;11.73;;
2564;SDS011;1292;48.020;7.822;2022-08-19T14:41:22;16.03;;;14.53;;
2564;SDS011;1292;48.020;7.822;2022-08-19T14:43:51;19.37;;;16.17;;
2564;SDS011;1292;48.020;7.822;2022-08-19T14:46:20;16.87;;;14.97;;
2564;SDS011;1292;48.020;7.822;2022-08-19T14:48:50;17.63;;;13.73;;
2564;SDS011;1292;48.020;7.822;2022-08-19T14:51:22;13.87;;;12.57;;
2564;SDS011;1292;48.020;7.822;2022-08-19T14:53:53;12.30;;;11.10;;
2564;SDS011;1292;48.020;7.822;2022-08-19T14:56:21;12.60;;;11.50;;
2564;SDS011;1292;48.020;7.822;2022-08-19T14:58:49;14.53;;;13.13;;
2564;SDS011;1292;48.020;7.822;2022-08-19T15:01:18;12.83;;;11.50;;
2564;SDS011;1292;48.020;7.822;2022-08-19T15:03:49;11.87;;;10.77;;
2564;SDS011;1292;48.020;7.822;2022-08-19T15:06:17;13.17;;;12.07;;
2564;SDS011;1292;48.020;7.822;2022-08-19T15:08:44;12.20;;;11.27;;
2564;SDS011;1292;48.020;7.822;2022-08-19T15:11:14;11.13;;;10.23;;
2564;SDS011;1292;48.020;7.822;2022-08-19T15:13:45;12.13;;;11.13;;
2564;SDS011;1292;48.020;7.822;2022-08-19T15:16:13;13.63;;;12.50;;
2564;SDS011;1292;48.020;7.822;2022-08-19T15:18:42;13.10;;;12.00;;
2564;SDS011;1292;48.020;7.822;2022-08-19T15:21:11;12.30;;;11.20;;
2564;SDS011;1292;48.020;7.822;2022-08-19T15:23:39;12.00;;;11.10;;
2564;SDS011;1292;48.020;7.822;2022-08-19T15:26:08;11.73;;;10.73;;
2564;SDS011;1292;48.020;7.822;2022-08-19T15:28:37;13.90;;;12.50;;
2564;SDS011;1292;48.020;7.822;2022-08-19T15:31:06;11.20;;;10.20;;
2564;SDS011;1292;48.020;7.822;2022-08-19T15:33:34;11.60;;;10.50;;
2564;SDS011;1292;48.020;7.822;2022-08-19T15:36:03;11.93;;;10.80;;
2564;SDS011;1292;48.020;7.822;2022-08-19T15:38:33;11.97;;;11.00;;
2564;SDS011;1292;48.020;7.822;2022-08-19T15:41:02;9.70;;;8.90;;
2564;SDS011;1292;48.020;7.822;2022-08-19T15:43:46;11.07;;;10.03;;
2564;SDS011;1292;48.020;7.822;2022-08-19T15:46:15;11.63;;;10.63;;
2564;SDS011;1292;48.020;7.822;2022-08-19T15:48:43;10.87;;;9.97;;
2564;SDS011;1292;48.020;7.822;2022-08-19T15:51:11;10.43;;;9.47;;
2564;SDS011;1292;48.020;7.822;2022-08-19T15:53:38;10.93;;;9.30;;
2564;SDS011;1292;48.020;7.822;2022-08-19T15:56:05;10.77;;;9.97;;
2564;SDS011;1292;48.020;7.822;2022-08-19T15:58:32;11.57;;;10.50;;
2564;SDS011;1292;48.020;7.822;2022-08-19T16:01:18;11.93;;;10.93;;
2564;SDS011;1292;48.020;7.822;2022-08-19T16:04:06;10.53;;;9.73;;
2564;SDS011;1292;48.020;7.822;2022-08-19T16:06:54;11.10;;;10.20;;
2564;SDS011;1292;48.020;7.822;2022-08-19T16:09:23;11.50;;;10.50;;
2564;SDS011;1292;48.020;7.822;2022-08-19T16:11:53;11.10;;;10.10;;
2564;SDS011;1292;48.020;7.822;2022-08-19T16:14:21;11.20;;;10.10;;
2564;SDS011;1292;48.020;7.822;2022-08-19T16:16:50;11.80;;;10.80;;
2564;SDS011;1292;48.020;7.822;2022-08-19T16:19:17;10.97;;;10.17;;
2564;SDS011;1292;48.020;7.822;2022-08-19T16:21:46;9.73;;;8.93;;
2564;SDS011;1292;48.020;7.822;2022-08-19T16:24:15;10.83;;;9.93;;
2564;SDS011;1292;48.020;7.822;2022-08-19T16:26:44;10.90;;;9.93;;
2564;SDS011;1292;48.020;7.822;2022-08-19T16:29:12;11.47;;;10.57;;
2564;SDS011;1292;48.020;7.822;2022-08-19T16:31:40;10.30;;;9.30;;
2564;SDS011;1292;48.020;7.822;2022-08-19T16:34:11;12.00;;;9.90;;
2564;SDS011;1292;48.020;7.822;2022-08-19T16:36:38;10.53;;;9.47;;
2564;SDS011;1292;48.020;7.822;2022-08-19T16:39:07;10.30;;;9.60;;
2564;SDS011;1292;48.020;7.822;2022-08-19T16:41:35;9.80;;;9.00;;
2564;SDS011;1292;48.020;7.822;2022-08-19T16:44:02;9.87;;;9.03;;
2564;SDS011;1292;48.020;7.822;2022-08-19T16:46:29;10.23;;;9.23;;
2564;SDS011;1292;48.020;7.822;2022-08-19T16:48:56;9.70;;;8.93;;
2564;SDS011;1292;48.020;7.822;2022-08-19T16:51:25;9.83;;;8.67;;
2564;SDS011;1292;48.020;7.822;2022-08-19T16:53:52;11.30;;;10.20;;
2564;SDS011;1292;48.020;7.822;2022-08-19T16:56:19;9.43;;;8.67;;
2564;SDS011;1292;48.020;7.822;2022-08-19T16:58:47;9.30;;;8.60;;
2564;SDS011;1292;48.020;7.822;2022-08-19T17:01:14;9.37;;;8.57;;
2564;SDS011;1292;48.020;7.822;2022-08-19T17:03:41;9.47;;;8.67;;
2564;SDS011;1292;48.020;7.822;2022-08-19T17:06:09;10.10;;;9.20;;
2564;SDS011;1292;48.020;7.822;2022-08-19T17:08:40;11.00;;;10.07;;
2564;SDS011;1292;48.020;7.822;2022-08-19T17:11:07;8.90;;;8.10;;
2564;SDS011;1292;48.020;7.822;2022-08-19T17:13:35;9.63;;;8.93;;
2564;SDS011;1292;48.020;7.822;2022-08-19T17:16:02;9.83;;;9.03;;
2564;SDS011;1292;48.020;7.822;2022-08-19T17:18:30;12.60;;;8.60;;
2564;SDS011;1292;48.020;7.822;2022-08-19T17:20:57;8.70;;;8.00;;
2564;SDS011;1292;48.020;7.822;2022-08-19T17:23:25;8.63;;;7.93;;
2564;SDS011;1292;48.020;7.822;2022-08-19T17:25:53;9.63;;;8.83;;
2564;SDS011;1292;48.020;7.822;2022-08-19T17:28:21;8.67;;;7.87;;
2564;SDS011;1292;48.020;7.822;2022-08-19T17:30:50;10.13;;;9.23;;
2564;SDS011;1292;48.020;7.822;2022-08-19T17:33:17;10.60;;;9.80;;
2564;SDS011;1292;48.020;7.822;2022-08-19T17:35:44;9.77;;;8.97;;
2564;SDS011;1292;48.020;7.822;2022-08-19T17:38:12;9.97;;;9.27;;
2564;SDS011;1292;48.020;7.822;2022-08-19T17:40:42;9.97;;;9.10;;
2564;SDS011;1292;48.020;7.822;2022-08-19T17:43:11;11.07;;;10.17;;
2564;SDS011;1292;48.020;7.822;2022-08-19T17:45:40;10.37;;;9.40;;
2564;SDS011;1292;48.020;7.822;2022-08-19T17:48:08;10.57;;;9.77;;
2564;SDS011;1292;48.020;7.822;2022-08-19T17:50:35;9.47;;;8.67;;
2564;SDS011;1292;48.020;7.822;2022-08-19T17:53:03;10.87;;;9.93;;
2564;SDS011;1292;48.020;7.822;2022-08-19T17:55:31;10.80;;;9.90;;
2564;SDS011;1292;48.020;7.822;2022-08-19T17:57:59;9.50;;;8.77;;
2564;SDS011;1292;48.020;7.822;2022-08-19T18:00:31;10.57;;;9.57;;
2564;SDS011;1292;48.020;7.822;2022-08-19T18:03:00;11.97;;;10.77;;
2564;SDS011;1292;48.020;7.822;2022-08-19T18:05:29;10.10;;;9.27;;
2564;SDS011;1292;48.020;7.822;2022-08-19T18:07:58;11.73;;;10.63;;
2564;SDS011;1292;48.020;7.822;2022-08-19T18:10:26;11.50;;;10.40;;
2564;SDS011;1292;48.020;7.822;2022-08-19T18:12:56;10.83;;;9.93;;
2564;SDS011;1292;48.020;7.822;2022-08-19T18:15:23;12.70;;;9.33;;
2564;SDS011;1292;48.020;7.822;2022-08-19T18:17:52;10.53;;;9.63;;
2564;SDS011;1292;48.020;7.822;2022-08-19T18:20:19;10.73;;;9.00;;
2564;SDS011;1292;48.020;7.822;2022-08-19T18:22:46;10.73;;;9.83;;
2564;SDS011;1292;48.020;7.822;2022-08-19T18:25:15;11.33;;;10.30;;
2564;SDS011;1292;48.020;7.822;2022-08-19T18:27:46;11.17;;;10.17;;
2564;SDS011;1292;48.020;7.822;2022-08-19T18:30:14;10.90;;;9.90;;
2564;SDS011;1292;48.020;7.822;2022-08-19T18:32:41;10.97;;;9.97;;
2564;SDS011;1292;48.020;7.822;2022-08-19T18:35:11;11.63;;;10.63;;
2564;SDS011;1292;48.020;7.822;2022-08-19T18:37:41;12.00;;;10.90;;
2564;SDS011;1292;48.020;7.822;2022-08-19T18:40:14;11.33;;;10.23;;
2564;SDS011;1292;48.020;7.822;2022-08-19T18:43:00;12.30;;;11.10;;
2564;SDS011;1292;48.020;7.822;2022-08-19T18:45:41;10.63;;;9.83;;
2564;SDS011;1292;48.020;7.822;2022-08-19T18:48:26;11.20;;;10.20;;
2564;SDS011;1292;48.020;7.822;2022-08-19T18:51:12;11.57;;;10.47;;
2564;SDS011;1292;48.020;7.822;2022-08-19T18:53:40;12.40;;;11.30;;
2564;SDS011;1292;48.020;7.822;2022-08-19T18:56:09;11.20;;;10.20;;
2564;SDS011;1292;48.020;7.822;2022-08-19T18:58:38;11.53;;;10.53;;
2564;SDS011;1292;48.020;7.822;2022-08-19T19:01:07;10.93;;;10.03;;
2564;SDS011;1292;48.020;7.822;2022-08-19T19:03:37;11.87;;;10.77;;
2564;SDS011;1292;48.020;7.822;2022-08-19T19:06:05;10.90;;;10.00;;
2564;SDS011;1292;48.020;7.822;2022-08-19T19:08:34;9.30;;;8.60;;
2564;SDS011;1292;48.020;7.822;2022-08-19T19:11:01;12.43;;;10.37;;
2564;SDS011;1292;48.020;7.822;2022-08-19T19:13:30;11.17;;;10.27;;
2564;SDS011;1292;48.020;7.822;2022-08-19T19:15:57;12.30;;;11.30;;
2564;SDS011;1292;48.020;7.822;2022-08-19T19:18:25;11.43;;;10.43;;
2564;SDS011;1292;48.020;7.822;2022-08-19T19:20:52;11.07;;;10.10;;
2564;SDS011;1292;48.020;7.822;2022-08-19T19:23:19;11.33;;;10.20;;
2564;SDS011;1292;48.020;7.822;2022-08-19T19:25:48;11.33;;;10.33;;
2564;SDS011;1292;48.020;7.822;2022-08-19T19:28:16;11.47;;;10.47;;
2564;SDS011;1292;48.020;7.822;2022-08-19T19:30:51;11.40;;;10.50;;
2564;SDS011;1292;48.020;7.822;2022-08-19T19:33:22;11.87;;;10.77;;
2564;SDS011;1292;48.020;7.822;2022-08-19T19:35:49;15.50;;;11.27;;
2564;SDS011;1292;48.020;7.822;2022-08-19T19:38:16;10.90;;;9.80;;
2564;SDS011;1292;48.020;7.822;2022-08-19T19:40:43;11.00;;;10.10;;
2564;SDS011;1292;48.020;7.822;2022-08-19T19:43:12;11.23;;;10.13;;
2564;SDS011;1292;48.020;7.822;2022-08-19T19:45:41;11.83;;;10.70;;
2564;SDS011;1292;48.020;7.822;2022-08-19T19:48:08;10.90;;;9.90;;
2564;SDS011;1292;48.020;7.822;2022-08-19T19:50:40;11.30;;;10.40;;
2564;SDS011;1292;48.020;7.822;2022-08-19T19:53:07;10.80;;;9.80;;
2564;SDS011;1292;48.020;7.822;2022-08-19T19:55:33;11.90;;;10.80;;
2564;SDS011;1292;48.020;7.822;2022-08-19T19:58:00;11.93;;;10.93;;
2564;SDS011;1292;48.020;7.822;2022-08-19T20:00:29;10.90;;;9.93;;
2564;SDS011;1292;48.020;7.822;2022-08-19T20:02:56;13.27;;;11.23;;
2564;SDS011;1292;48.020;7.822;2022-08-19T20:05:23;16.03;;;11.40;;
2564;SDS011;1292;48.020;7.822;2022-08-19T20:07:51;12.60;;;11.40;;
2564;SDS011;1292;48.020;7.822;2022-08-19T20:10:36;12.60;;;11.50;;
2564;SDS011;1292;48.020;7.822;2022-08-19T20:13:04;11.57;;;10.33;;
2564;SDS011;1292;48.020;7.822;2022-08-19T20:15:33;13.03;;;11.70;;
2564;SDS011;1292;48.020;7.822;2022-08-19T20:18:00;12.87;;;11.33;;
2564;SDS011;1292;48.020;7.822;2022-08-19T20:20:28;14.70;;;13.40;;
2564;SDS011;1292;48.020;7.822;2022-08-19T20:22:55;13.47;;;11.90;;
2564;SDS011;1292;48.020;7.822;2022-08-19T20:25:22;14.53;;;13.23;;
2564;SDS011;1292;48.020;7.822;2022-08-19T20:27:49;14.03;;;12.20;;
2564;SDS011;1292;48.020;7.822;2022-08-19T20:30:17;13.40;;;12.30;;
2564;SDS011;1292;48.020;7.822;2022-08-19T20:32:47;13.57;;;12.20;;
2564;SDS011;1292;48.020;7.822;2022-08-19T20:35:16;13.93;;;12.53;;
2564;SDS011;1292;48.020;7.822;2022-08-19T20:37:44;13.90;;;12.50;;
2564;SDS011;1292;48.020;7.822;2022-08-19T20:40:11;14.27;;;12.83;;
2564;SDS011;1292;48.020;7.822;2022-08-19T20:42:40;13.33;;;12.23;;
2564;SDS011;1292;48.020;7.822;2022-08-19T20:45:08;16.23;;;14.63;;
2564;SDS011;1292;48.020;7.822;2022-08-19T20:47:36;13.10;;;12.00;;
2564;SDS011;1292;48.020;7.822;2022-08-19T20:50:07;12.10;;;10.90;;